createdAt,value
2023-03-17T00:01:23.642Z,99.90
2023-03-17T00:03:26.821Z,99.90
2023-03-17T00:05:33.247Z,99.90
2023-03-17T00:07:34.844Z,99.90
2023-03-17T00:09:36.626Z,99.90
2023-03-17T00:11:38.564Z,99.90
2023-03-17T00:13:41.671Z,99.90
2023-03-17T00:15:44.844Z,99.90
2023-03-17T00:17:47.561Z,99.90
2023-03-17T00:19:49.164Z,99.90
2023-03-17T00:21:50.773Z,99.90
2023-03-17T00:23:52.472Z,99.90
2023-03-17T00:25:54.274Z,99.90
2023-03-17T00:27:58.122Z,99.90
2023-03-17T00:29:59.836Z,99.90
2023-03-17T00:32:01.504Z,99.90
2023-03-17T00:34:03.198Z,99.90
2023-03-17T00:36:06.599Z,99.90
2023-03-17T00:38:14.737Z,99.90
2023-03-17T00:40:21.570Z,99.90
2023-03-17T00:42:23.272Z,99.90
2023-03-17T00:44:25.498Z,99.90
2023-03-17T00:46:35.867Z,99.90
2023-03-17T00:48:39.087Z,99.90
2023-03-17T00:50:40.940Z,99.90
2023-03-17T00:52:43.312Z,99.90
2023-03-17T00:54:45.343Z,99.90
2023-03-17T00:56:48.033Z,99.90
2023-03-17T00:58:49.770Z,99.90
2023-03-17T01:00:52.202Z,99.90
2023-03-17T01:02:54.668Z,99.90
2023-03-17T01:05:05.775Z,99.90
2023-03-17T01:07:11.088Z,99.90
2023-03-17T01:09:17.013Z,99.90
2023-03-17T01:11:20.204Z,99.90
2023-03-17T01:13:22.184Z,99.90
2023-03-17T01:15:24.638Z,99.90
2023-03-17T01:17:26.633Z,99.90
2023-03-17T01:19:28.283Z,99.90
2023-03-17T01:21:29.969Z,99.90
2023-03-17T01:23:31.836Z,99.90
2023-03-17T01:25:33.736Z,99.90
2023-03-17T01:27:36.392Z,99.90
2023-03-17T01:29:38.705Z,99.90
2023-03-17T01:31:41.164Z,99.90
2023-03-17T01:33:42.919Z,99.90
2023-03-17T01:35:45.887Z,99.90
2023-03-17T01:37:48.875Z,99.90
2023-03-17T01:39:51.400Z,99.90
2023-03-17T01:41:56.751Z,99.90
2023-03-17T01:43:58.357Z,99.90
2023-03-17T01:46:20.692Z,99.90
2023-03-17T01:48:22.786Z,99.90
2023-03-17T01:50:24.455Z,99.90
2023-03-17T01:52:27.600Z,99.90
2023-03-17T01:54:44.256Z,99.90
2023-03-17T01:56:47.230Z,99.90
2023-03-17T01:58:51.891Z,99.90
2023-03-17T02:00:53.659Z,99.90
2023-03-17T02:02:56.340Z,99.90
2023-03-17T02:04:58.398Z,99.90
2023-03-17T02:07:00.505Z,99.90
2023-03-17T02:09:02.248Z,99.90
2023-03-17T02:11:05.328Z,99.90
2023-03-17T02:13:07.730Z,99.90
2023-03-17T02:15:09.993Z,99.90
2023-03-17T02:17:11.633Z,99.90
2023-03-17T02:19:13.579Z,99.90
2023-03-17T02:21:34.043Z,99.90
2023-03-17T02:23:36.563Z,99.90
2023-03-17T02:25:39.028Z,99.90
2023-03-17T02:27:45.242Z,99.90
2023-03-17T02:29:47.238Z,99.90
2023-03-17T02:31:49.086Z,99.90
2023-03-17T02:33:52.106Z,99.90
2023-03-17T02:35:53.739Z,99.90
2023-03-17T02:37:55.372Z,99.90
2023-03-17T02:39:57.016Z,99.90
2023-03-17T02:41:58.606Z,99.90
2023-03-17T02:44:00.650Z,99.90
2023-03-17T02:46:02.429Z,99.90
2023-03-17T02:48:05.212Z,99.90
2023-03-17T02:50:07.454Z,99.90
2023-03-17T02:52:09.288Z,99.90
2023-03-17T02:54:11.147Z,99.90
2023-03-17T02:56:12.833Z,99.90
2023-03-17T02:58:14.429Z,99.90
2023-03-17T03:00:16.341Z,99.90
2023-03-17T03:02:18.107Z,99.90
2023-03-17T03:04:20.233Z,99.90
2023-03-17T03:06:23.744Z,99.90
2023-03-17T03:08:26.175Z,99.90
2023-03-17T03:10:28.120Z,99.90
2023-03-17T03:12:30.373Z,99.90
2023-03-17T03:14:32.497Z,99.90
2023-03-17T03:16:34.188Z,99.90
2023-03-17T03:18:35.778Z,99.90
2023-03-17T03:20:37.409Z,99.90
2023-03-17T03:22:39.305Z,99.90
2023-03-17T03:24:41.659Z,99.90
2023-03-17T03:26:43.851Z,99.90
2023-03-17T03:28:45.770Z,99.90
2023-03-17T03:30:47.499Z,99.90
2023-03-17T03:32:49.386Z,99.90
2023-03-17T03:34:51.068Z,99.90
2023-03-17T03:36:52.665Z,99.90
2023-03-17T03:38:54.508Z,99.90
2023-03-17T03:40:56.120Z,99.90
2023-03-17T03:42:57.865Z,99.90
2023-03-17T03:44:59.495Z,99.90
2023-03-17T03:47:01.694Z,99.90
2023-03-17T03:49:03.415Z,99.90
2023-03-17T03:51:05.277Z,99.90
2023-03-17T03:53:07.280Z,99.90
2023-03-17T03:55:09.308Z,99.90
2023-03-17T03:57:11.066Z,99.90
2023-03-17T03:59:12.725Z,99.90
2023-03-17T04:01:14.493Z,99.90
2023-03-17T04:03:16.513Z,99.90
2023-03-17T04:05:18.590Z,99.90
2023-03-17T04:07:21.309Z,99.90
2023-03-17T04:09:22.977Z,99.90
2023-03-17T04:11:24.634Z,99.90
2023-03-17T04:13:26.222Z,99.90
2023-03-17T04:15:27.904Z,99.90
2023-03-17T04:17:29.499Z,99.90
2023-03-17T04:19:31.497Z,99.90
2023-03-17T04:21:33.224Z,99.90
2023-03-17T04:23:34.826Z,99.90
2023-03-17T04:25:36.786Z,99.90
2023-03-17T04:27:38.431Z,99.90
2023-03-17T04:29:40.231Z,99.90
2023-03-17T04:31:42.462Z,99.90
2023-03-17T04:33:44.547Z,99.90
2023-03-17T04:35:46.335Z,99.90
2023-03-17T04:37:48.561Z,99.90
2023-03-17T04:39:50.205Z,99.90
2023-03-17T04:41:51.912Z,99.90
2023-03-17T04:43:53.584Z,99.90
2023-03-17T04:45:55.724Z,99.90
2023-03-17T04:47:57.397Z,99.90
2023-03-17T04:49:59.001Z,99.90
2023-03-17T04:52:00.778Z,99.90
2023-03-17T04:54:02.706Z,99.90
2023-03-17T04:56:04.429Z,99.90
2023-03-17T04:58:06.094Z,99.90
2023-03-17T05:00:08.145Z,99.90
2023-03-17T05:02:10.088Z,99.90
2023-03-17T05:04:16.663Z,99.90
2023-03-17T05:06:23.751Z,99.90
2023-03-17T05:08:26.117Z,99.90
2023-03-17T05:10:27.817Z,99.90
2023-03-17T05:12:29.481Z,99.90
2023-03-17T05:14:31.107Z,99.90
2023-03-17T05:16:32.721Z,99.90
2023-03-17T05:18:34.836Z,99.90
2023-03-17T05:20:36.787Z,99.90
2023-03-17T05:22:38.560Z,99.90
2023-03-17T05:24:40.392Z,99.90
2023-03-17T05:26:42.189Z,99.90
2023-03-17T05:28:43.766Z,99.90
2023-03-17T05:30:45.915Z,99.90
2023-03-17T05:32:48.071Z,99.90
2023-03-17T05:34:49.990Z,99.90
2023-03-17T05:36:51.602Z,99.90
2023-03-17T05:38:53.271Z,99.90
2023-03-17T05:40:55.110Z,99.90
2023-03-17T05:42:56.809Z,99.90
2023-03-17T05:44:58.630Z,99.90
2023-03-17T05:47:00.922Z,99.90
2023-03-17T05:49:03.164Z,99.90
2023-03-17T05:51:04.948Z,99.90
2023-03-17T05:53:06.615Z,99.90
2023-03-17T05:55:08.461Z,99.90
2023-03-17T05:57:10.322Z,99.90
2023-03-17T05:59:14.895Z,99.90
2023-03-17T06:01:16.667Z,99.90
2023-03-17T06:03:18.393Z,99.90
2023-03-17T06:05:20.069Z,99.90
2023-03-17T06:07:21.865Z,99.90
2023-03-17T06:09:23.456Z,99.90
2023-03-17T06:11:25.234Z,99.90
2023-03-17T06:13:27.176Z,99.90
2023-03-17T06:15:29.124Z,99.90
2023-03-17T06:17:31.131Z,99.90
2023-03-17T06:19:32.743Z,99.90
2023-03-17T06:21:34.436Z,99.90
2023-03-17T06:23:36.587Z,99.90
2023-03-17T06:25:38.190Z,99.90
2023-03-17T06:27:40.937Z,99.90
2023-03-17T06:29:42.731Z,99.90
2023-03-17T06:31:50.228Z,99.90
2023-03-17T06:33:59.674Z,99.90
2023-03-17T06:36:01.830Z,99.90
2023-03-17T06:38:03.789Z,99.90
2023-03-17T06:40:12.909Z,99.90
2023-03-17T06:42:20.440Z,99.90
2023-03-17T06:44:22.034Z,99.90
2023-03-17T06:46:23.636Z,99.90
2023-03-17T06:48:39.278Z,99.90
2023-03-17T06:50:47.964Z,99.90
2023-03-17T06:52:49.655Z,99.90
2023-03-17T06:54:51.881Z,99.90
2023-03-17T06:56:53.724Z,99.90
2023-03-17T06:58:55.253Z,99.90
2023-03-17T07:00:57.054Z,99.90
2023-03-17T07:02:58.683Z,99.90
2023-03-17T07:05:00.722Z,99.90
2023-03-17T07:07:03.096Z,99.90
2023-03-17T07:09:11.423Z,99.90
2023-03-17T07:11:13.033Z,99.90
2023-03-17T07:13:20.949Z,99.90
2023-03-17T07:15:22.521Z,99.90
2023-03-17T07:17:24.170Z,99.90
2023-03-17T07:19:27.154Z,99.90
2023-03-17T07:21:28.749Z,99.90
2023-03-17T07:23:31.042Z,99.90
2023-03-17T07:25:33.148Z,99.90
2023-03-17T07:27:35.581Z,99.90
2023-03-17T07:29:37.453Z,99.90
2023-03-17T07:31:39.347Z,99.90
2023-03-17T07:33:41.297Z,99.90
2023-03-17T07:35:43.738Z,99.90
2023-03-17T07:37:47.303Z,99.90
2023-03-17T07:39:54.869Z,99.90
2023-03-17T07:42:06.935Z,99.90
2023-03-17T07:44:22.815Z,99.90
2023-03-17T07:46:24.444Z,99.90
2023-03-17T07:48:27.343Z,99.90
2023-03-17T07:50:29.360Z,99.90
2023-03-17T07:52:39.451Z,99.90
2023-03-17T07:54:43.240Z,99.90
2023-03-17T07:56:45.229Z,99.90
2023-03-17T07:58:47.295Z,99.90
2023-03-17T08:00:48.904Z,99.90
2023-03-17T08:03:06.913Z,99.90
2023-03-17T08:05:11.316Z,99.90
2023-03-17T08:07:13.096Z,99.90
2023-03-17T08:09:15.629Z,99.90
2023-03-17T08:11:19.025Z,99.90
2023-03-17T08:13:20.745Z,99.90
2023-03-17T08:15:22.869Z,99.90
2023-03-17T08:17:27.853Z,99.90
2023-03-17T08:19:29.673Z,99.90
2023-03-17T08:21:32.097Z,99.90
2023-03-17T08:23:33.946Z,99.90
2023-03-17T08:25:35.875Z,99.90
2023-03-17T08:27:38.747Z,99.90
2023-03-17T08:29:40.364Z,99.90
2023-03-17T08:31:43.613Z,99.90
2023-03-17T08:33:50.604Z,99.90
2023-03-17T08:35:54.054Z,99.90
2023-03-17T08:37:56.362Z,99.90
2023-03-17T08:39:58.253Z,99.90
2023-03-17T08:41:59.962Z,99.90
2023-03-17T08:44:01.987Z,99.90
2023-03-17T08:46:08.182Z,99.90
2023-03-17T08:48:10.128Z,99.90
2023-03-17T08:50:31.910Z,99.90
2023-03-17T08:52:34.968Z,99.90
2023-03-17T08:54:40.642Z,99.90
2023-03-17T08:56:46.746Z,99.90
2023-03-17T08:58:49.090Z,99.90
2023-03-17T09:00:53.925Z,99.90
2023-03-17T09:02:56.861Z,99.90
2023-03-17T09:04:58.714Z,99.90
2023-03-17T09:07:04.472Z,99.90
2023-03-17T09:09:06.975Z,99.90
2023-03-17T09:11:10.375Z,99.90
2023-03-17T09:13:12.103Z,99.90
2023-03-17T09:15:13.747Z,99.90
2023-03-17T09:17:15.405Z,99.90
2023-03-17T09:19:17.968Z,99.90
2023-03-17T09:21:20.063Z,99.90
2023-03-17T09:23:23.259Z,99.90
2023-03-17T09:25:25.057Z,99.90
2023-03-17T09:27:26.688Z,99.90
2023-03-17T09:29:28.389Z,99.90
2023-03-17T09:31:32.940Z,99.90
2023-03-17T09:33:34.615Z,99.90
2023-03-17T09:35:37.722Z,99.90
2023-03-17T09:37:39.417Z,99.90
2023-03-17T09:39:41.664Z,99.90
2023-03-17T09:41:57.063Z,99.90
2023-03-17T09:44:05.040Z,99.90
2023-03-17T09:46:29.950Z,99.90
2023-03-17T09:48:49.872Z,99.90
2023-03-17T09:50:54.466Z,99.90
2023-03-17T09:52:57.267Z,99.90
2023-03-17T09:54:58.935Z,99.90
2023-03-17T09:57:06.121Z,99.90
2023-03-17T09:59:19.133Z,99.90
2023-03-17T10:01:22.161Z,99.90
2023-03-17T10:03:29.653Z,99.90
2023-03-17T10:05:38.075Z,99.90
2023-03-17T10:07:59.030Z,99.90
2023-03-17T10:10:03.988Z,99.90
2023-03-17T10:12:09.305Z,99.90
2023-03-17T10:14:24.223Z,99.90
2023-03-17T10:16:45.238Z,99.90
2023-03-17T10:18:51.724Z,99.90
2023-03-17T10:20:57.982Z,99.90
2023-03-17T10:23:03.580Z,99.90
2023-03-17T10:25:07.709Z,99.90
2023-03-17T10:27:12.415Z,99.90
2023-03-17T10:29:16.698Z,99.90
2023-03-17T10:31:20.231Z,99.90
2023-03-17T10:33:22.493Z,99.90
2023-03-17T10:35:24.774Z,99.90
2023-03-17T10:37:29.734Z,99.90
2023-03-17T10:39:41.496Z,99.90
2023-03-17T10:41:52.508Z,99.90
2023-03-17T10:43:54.636Z,99.90
2023-03-17T10:46:18.412Z,99.90
2023-03-17T10:48:22.818Z,99.90
2023-03-17T10:50:28.689Z,99.90
2023-03-17T10:52:33.200Z,99.90
2023-03-17T10:54:36.311Z,99.90
2023-03-17T10:56:42.270Z,99.90
2023-03-17T10:58:45.211Z,99.90
2023-03-17T11:01:01.450Z,99.90
2023-03-17T11:03:12.020Z,99.90
2023-03-17T11:05:19.924Z,99.90
2023-03-17T11:07:30.431Z,99.90
2023-03-17T11:09:36.413Z,99.90
2023-03-17T11:11:46.044Z,99.90
2023-03-17T11:13:50.658Z,99.90
2023-03-17T11:15:56.890Z,99.90
2023-03-17T11:18:05.331Z,99.90
2023-03-17T11:20:13.227Z,99.90
2023-03-17T11:22:19.659Z,99.90
2023-03-17T11:24:28.172Z,99.90
2023-03-17T11:26:42.088Z,99.90
2023-03-17T11:28:47.916Z,99.30
2023-03-17T11:30:56.666Z,99.90
2023-03-17T11:59:56.655Z,93.00
2023-03-17T12:01:59.376Z,92.90
2023-03-17T12:04:14.780Z,93.30
2023-03-17T12:06:24.671Z,91.50
2023-03-17T12:08:42.227Z,90.10
2023-03-17T12:10:55.534Z,86.00
2023-03-17T12:13:00.309Z,77.90
2023-03-17T12:15:05.254Z,79.90
2023-03-17T12:17:27.002Z,79.50
2023-03-17T12:19:33.791Z,80.70
2023-03-17T12:21:56.861Z,78.50
2023-03-17T12:24:02.325Z,81.40
2023-03-17T12:26:05.239Z,81.00
2023-03-17T12:28:11.831Z,86.10
2023-03-17T12:30:25.453Z,78.40
2023-03-17T12:32:36.051Z,75.90
2023-03-17T12:34:41.830Z,74.30
2023-03-17T12:36:43.914Z,73.80
2023-03-17T12:39:02.034Z,74.00
2023-03-17T12:41:06.983Z,72.60
2023-03-17T12:43:15.233Z,73.90
2023-03-17T12:45:30.444Z,76.10
2023-03-17T12:47:41.035Z,75.00
2023-03-17T12:49:51.418Z,74.50
2023-03-17T12:51:56.150Z,72.30
2023-03-17T12:54:00.254Z,71.50
2023-03-17T12:56:17.386Z,72.10
2023-03-17T12:58:19.996Z,70.10
2023-03-17T13:00:25.346Z,68.30
2023-03-17T13:02:27.040Z,68.20
2023-03-17T13:04:32.369Z,69.20
2023-03-17T13:06:39.347Z,72.60
2023-03-17T13:08:41.222Z,64.20
2023-03-17T13:10:44.380Z,63.50
2023-03-17T13:12:48.580Z,66.90
2023-03-17T13:14:51.886Z,61.50
2023-03-17T13:17:04.580Z,62.70
2023-03-17T13:19:17.289Z,71.50
2023-03-17T13:21:22.624Z,69.20
2023-03-17T13:23:42.835Z,66.60
2023-03-17T13:25:54.590Z,62.10
2023-03-17T13:28:11.920Z,64.20
2023-03-17T13:30:22.765Z,61.60
2023-03-17T13:32:24.767Z,66.70
2023-03-17T13:34:28.204Z,64.70
2023-03-17T13:36:37.993Z,63.80
2023-03-17T13:39:15.116Z,66.40
2023-03-17T13:41:33.423Z,62.50
2023-03-17T13:43:38.152Z,65.70
2023-03-17T13:45:43.898Z,66.10
2023-03-17T14:23:52.848Z,57.10
2023-03-17T14:25:58.590Z,67.10
2023-03-17T14:28:00.717Z,56.70
2023-03-17T14:30:06.763Z,62.20
2023-03-17T14:32:13.230Z,62.80
2023-03-17T14:34:16.089Z,59.70
2023-03-17T14:36:19.395Z,58.00
2023-03-17T14:38:25.339Z,59.30
2023-03-17T14:40:28.308Z,57.00
2023-03-17T14:42:30.758Z,56.70
2023-03-17T14:44:36.390Z,57.80
2023-03-17T14:46:38.623Z,66.50
2023-03-17T14:48:42.020Z,65.00
2023-03-17T14:50:49.344Z,60.70
2023-03-17T14:52:51.233Z,63.10
2023-03-17T14:54:53.610Z,68.20
2023-03-17T14:57:02.215Z,61.80
2023-03-17T14:59:15.938Z,61.20
2023-03-17T15:01:33.666Z,68.60
2023-03-17T15:03:38.366Z,60.30
2023-03-17T15:05:41.640Z,60.70
2023-03-17T15:07:43.378Z,70.20
2023-03-17T15:09:45.268Z,68.80
2023-03-17T15:11:47.565Z,66.90
2023-03-17T15:13:50.548Z,64.20
2023-03-17T15:15:52.325Z,62.60
2023-03-17T15:17:57.553Z,67.50
2023-03-17T15:20:04.854Z,71.40
2023-03-17T15:22:28.242Z,70.80
2023-03-17T15:24:36.371Z,73.10
2023-03-17T15:26:38.069Z,74.20
2023-03-17T15:28:41.984Z,74.50
2023-03-17T15:30:48.328Z,72.50
2023-03-17T15:32:51.751Z,83.20
2023-03-17T15:34:54.713Z,82.00
2023-03-17T15:36:57.608Z,79.50
2023-03-17T15:39:00.837Z,80.50
2023-03-17T15:41:02.697Z,78.90
2023-03-17T15:43:04.356Z,80.40
2023-03-17T15:45:06.622Z,81.20
2023-03-17T15:47:11.879Z,87.30
2023-03-17T15:49:13.563Z,87.90
2023-03-17T15:51:16.277Z,90.30
2023-03-17T15:53:18.722Z,91.30
2023-03-17T15:55:21.915Z,92.80
2023-03-17T15:57:23.630Z,92.10
2023-03-17T15:59:25.376Z,92.00
2023-03-17T16:01:28.061Z,92.00
2023-03-17T16:03:33.920Z,95.20
2023-03-17T16:05:36.076Z,97.10
2023-03-17T16:07:37.721Z,94.70
2023-03-17T16:09:39.567Z,97.00
2023-03-17T16:11:41.230Z,98.30
2023-03-17T16:13:42.957Z,96.50
2023-03-17T16:15:48.857Z,99.90
2023-03-17T16:17:51.810Z,99.90
2023-03-17T16:19:53.416Z,99.90
2023-03-17T16:21:55.512Z,99.90
2023-03-17T16:23:57.804Z,99.90
2023-03-17T16:26:13.777Z,99.90
2023-03-17T16:28:18.211Z,99.90
2023-03-17T16:30:21.383Z,99.90
2023-03-17T16:32:23.052Z,99.90
2023-03-17T16:34:25.306Z,99.90
2023-03-17T16:36:27.194Z,99.90
2023-03-17T16:38:32.703Z,99.90
2023-03-17T16:40:35.416Z,99.90
2023-03-17T16:42:37.288Z,99.90
2023-03-17T16:44:39.100Z,99.90
2023-03-17T16:46:44.798Z,99.90
2023-03-17T16:48:48.294Z,99.90
2023-03-17T16:50:53.311Z,99.90
2023-03-17T16:52:55.210Z,99.90
2023-03-17T16:54:56.816Z,99.90
2023-03-17T16:56:58.666Z,99.90
2023-03-17T16:59:00.874Z,99.90
2023-03-17T17:01:04.045Z,99.90
2023-03-17T17:03:05.705Z,99.90
2023-03-17T17:05:18.054Z,99.90
2023-03-17T17:07:19.682Z,99.90
2023-03-17T17:09:21.387Z,99.90
2023-03-17T17:11:23.013Z,99.90
2023-03-17T17:13:24.600Z,99.90
2023-03-17T17:15:26.386Z,99.90
2023-03-17T17:17:28.410Z,99.90
2023-03-17T17:19:30.227Z,99.90
2023-03-17T17:21:32.788Z,99.90
2023-03-17T17:23:34.464Z,99.90
2023-03-17T17:25:36.149Z,99.90
2023-03-17T17:27:39.354Z,99.90
2023-03-17T17:29:40.973Z,99.90
2023-03-17T17:31:42.664Z,99.90
2023-03-17T17:33:44.277Z,99.90
2023-03-17T17:35:47.082Z,99.90
2023-03-17T17:37:48.738Z,99.90
2023-03-17T17:39:52.420Z,99.90
2023-03-17T17:41:54.095Z,99.90
2023-03-17T17:43:56.119Z,99.90
2023-03-17T17:45:57.800Z,99.90
2023-03-17T17:47:59.389Z,99.90
2023-03-17T17:50:01.159Z,99.90
2023-03-17T17:52:02.782Z,99.90
2023-03-17T17:54:04.448Z,99.90
2023-03-17T17:56:06.510Z,99.90
2023-03-17T17:58:09.180Z,99.90
2023-03-17T18:00:15.454Z,99.90
2023-03-17T18:02:17.132Z,99.90
2023-03-17T18:04:19.121Z,99.90
2023-03-17T18:06:21.087Z,99.90
2023-03-17T18:08:23.691Z,99.90
2023-03-17T18:10:26.136Z,99.90
2023-03-17T18:12:28.285Z,99.90
2023-03-17T18:14:29.986Z,99.90
2023-03-17T18:16:31.707Z,99.90
2023-03-17T18:18:33.416Z,99.90
2023-03-17T18:20:35.276Z,99.90
2023-03-17T18:22:36.885Z,99.90
2023-03-17T18:24:39.356Z,99.90
2023-03-17T18:26:41.646Z,99.90
2023-03-17T18:28:43.841Z,99.90
2023-03-17T18:30:45.655Z,99.90
2023-03-17T18:32:49.730Z,99.90
2023-03-17T18:34:51.600Z,99.90
2023-03-17T18:36:54.669Z,99.90
2023-03-17T18:38:56.659Z,99.90
2023-03-17T18:40:58.609Z,99.90
2023-03-17T18:43:00.382Z,99.90
2023-03-17T18:45:02.236Z,99.90
2023-03-17T18:47:04.052Z,99.90
2023-03-17T18:49:07.001Z,99.90
2023-03-17T18:51:08.742Z,99.90
2023-03-17T18:53:10.469Z,99.90
2023-03-17T18:55:13.557Z,99.90
2023-03-17T18:57:15.448Z,99.90
2023-03-17T18:59:17.275Z,99.90
2023-03-17T19:01:18.934Z,99.90
2023-03-17T19:03:20.751Z,99.90
2023-03-17T19:05:22.789Z,99.90
2023-03-17T19:07:24.706Z,99.90
2023-03-17T19:09:27.187Z,99.90
2023-03-17T19:11:29.757Z,99.90
2023-03-17T19:13:31.417Z,99.90
2023-03-17T19:15:34.094Z,99.90
2023-03-17T19:17:35.714Z,99.90
2023-03-17T19:19:37.484Z,99.90
2023-03-17T19:21:39.210Z,99.90
2023-03-17T19:23:41.497Z,99.90
2023-03-17T19:25:43.267Z,99.90
2023-03-17T19:27:45.272Z,99.90
2023-03-17T19:29:46.909Z,99.90
2023-03-17T19:31:48.899Z,99.90
2023-03-17T19:33:51.690Z,99.90
2023-03-17T19:35:54.986Z,99.90
2023-03-17T19:37:57.357Z,99.90
2023-03-17T19:40:00.438Z,99.90
2023-03-17T19:42:02.301Z,99.90
2023-03-17T19:44:06.878Z,99.90
2023-03-17T19:46:09.452Z,99.90
2023-03-17T19:48:11.687Z,99.90
2023-03-17T19:50:13.661Z,99.90
2023-03-17T19:52:15.396Z,99.90
2023-03-17T19:54:18.618Z,99.90
2023-03-17T19:56:21.262Z,99.90
2023-03-17T20:01:57.627Z,99.90
2023-03-17T20:14:01.249Z,99.90
2023-03-17T20:16:03.863Z,99.90
2023-03-17T20:18:05.570Z,99.90
2023-03-17T20:20:09.210Z,99.90
2023-03-17T20:22:11.588Z,99.90
2023-03-17T20:24:14.655Z,99.90
2023-03-17T20:26:16.454Z,99.90
2023-03-17T20:28:18.515Z,99.90
2023-03-17T20:30:20.218Z,99.90
2023-03-17T20:32:21.976Z,99.90
2023-03-17T20:34:23.987Z,99.90
2023-03-17T20:36:26.018Z,99.90
2023-03-17T20:38:27.897Z,99.90
2023-03-17T20:40:29.822Z,99.90
2023-03-17T20:42:32.021Z,99.90
2023-03-17T20:44:33.770Z,99.90
2023-03-17T20:46:35.619Z,99.90
2023-03-17T20:48:37.447Z,99.90
2023-03-17T20:50:41.504Z,99.90
2023-03-17T20:52:43.310Z,99.90
2023-03-17T20:54:45.664Z,99.90
2023-03-17T20:56:48.920Z,99.90
2023-03-17T20:58:50.880Z,99.90
2023-03-17T21:00:53.515Z,99.90
2023-03-17T21:02:56.212Z,99.90
2023-03-17T21:04:57.958Z,99.90
2023-03-17T21:06:59.699Z,99.90
2023-03-17T21:09:02.528Z,99.90
2023-03-17T21:11:08.330Z,99.90
2023-03-17T21:13:10.161Z,99.90
2023-03-17T21:15:13.046Z,99.90
2023-03-17T21:17:16.266Z,99.90
2023-03-17T21:19:18.006Z,99.90
2023-03-17T21:21:20.532Z,99.90
2023-03-17T21:23:23.094Z,99.90
2023-03-17T21:25:25.534Z,99.90
2023-03-17T21:27:27.666Z,99.90
2023-03-17T21:29:32.121Z,99.90
2023-03-17T21:31:33.869Z,99.90
2023-03-17T21:33:35.610Z,99.90
2023-03-17T21:35:37.324Z,99.90
2023-03-17T21:37:39.048Z,99.90
2023-03-17T21:39:40.729Z,99.90
2023-03-17T21:41:43.567Z,99.90
2023-03-17T21:43:46.542Z,99.90
2023-03-17T21:45:49.634Z,99.90
2023-03-17T21:47:51.504Z,99.90
2023-03-17T21:49:53.199Z,99.90
2023-03-17T21:51:55.271Z,99.90
2023-03-17T21:53:57.735Z,99.90
2023-03-17T21:55:59.422Z,99.90
2023-03-17T21:58:02.406Z,99.90
2023-03-17T22:00:06.231Z,99.90
2023-03-17T22:02:10.756Z,99.90
2023-03-17T22:04:12.689Z,99.90
2023-03-17T22:06:15.463Z,99.90
2023-03-17T22:08:17.166Z,99.90
2023-03-17T22:10:18.982Z,99.90
2023-03-17T22:12:21.042Z,99.90
2023-03-17T22:14:22.771Z,99.90
2023-03-17T22:16:25.099Z,99.90
2023-03-17T22:18:27.270Z,99.90
2023-03-17T22:20:30.216Z,99.90
2023-03-17T22:22:32.024Z,99.90
2023-03-17T22:24:33.977Z,99.90
2023-03-17T22:26:35.858Z,99.90
2023-03-17T22:28:38.265Z,99.90
2023-03-17T22:30:40.081Z,99.90
2023-03-17T22:32:42.037Z,99.90
2023-03-17T22:34:44.584Z,99.90
2023-03-17T22:36:46.360Z,99.90
2023-03-17T22:38:48.235Z,99.90
2023-03-17T22:40:59.513Z,99.90
2023-03-17T22:43:01.716Z,99.90
2023-03-17T22:45:04.472Z,99.90
2023-03-17T22:47:06.295Z,99.90
2023-03-17T22:49:08.011Z,99.90
2023-03-17T22:51:11.280Z,99.90
2023-03-17T22:53:12.952Z,99.90
2023-03-17T22:55:14.714Z,99.90
2023-03-17T22:57:16.350Z,99.90
2023-03-17T22:59:17.980Z,99.90
2023-03-17T23:01:20.300Z,99.90
2023-03-17T23:03:22.966Z,99.90
2023-03-17T23:05:25.677Z,99.90
2023-03-17T23:07:27.436Z,99.90
2023-03-17T23:09:29.371Z,99.90
2023-03-17T23:11:31.017Z,99.90
2023-03-17T23:13:32.762Z,99.90
2023-03-17T23:15:34.689Z,99.90
2023-03-17T23:17:36.567Z,99.90
2023-03-17T23:19:38.116Z,99.90
2023-03-17T23:21:39.808Z,99.90
2023-03-17T23:23:41.526Z,99.90
2023-03-17T23:25:43.630Z,99.90
2023-03-17T23:27:46.733Z,99.90
2023-03-17T23:29:48.374Z,99.90
2023-03-17T23:31:50.138Z,99.90
2023-03-17T23:33:52.651Z,99.90
2023-03-17T23:35:54.415Z,99.90
2023-03-17T23:37:56.270Z,99.90
2023-03-17T23:39:57.922Z,99.90
2023-03-17T23:41:59.632Z,99.90
2023-03-17T23:44:01.381Z,99.90
2023-03-17T23:46:04.405Z,99.90
2023-03-17T23:48:06.165Z,99.90
2023-03-17T23:50:08.521Z,99.90
2023-03-17T23:52:11.296Z,99.90
2023-03-17T23:54:14.327Z,99.90
2023-03-17T23:56:16.198Z,99.90
2023-03-17T23:58:18.141Z,99.90
